createdAt,value
2017-04-29T00:00:33.576Z,20.37
2017-04-29T00:01:43.857Z,20.27
2017-04-29T00:02:54.139Z,20.29
2017-04-29T00:04:04.682Z,20.32
2017-04-29T00:05:14.968Z,20.32
2017-04-29T00:06:24.950Z,20.29
2017-04-29T00:07:34.933Z,20.37
2017-04-29T00:08:45.223Z,20.33
2017-04-29T00:09:55.814Z,20.33
2017-04-29T00:11:06.108Z,20.32
2017-04-29T00:12:15.468Z,20.32
2017-04-29T00:13:25.778Z,20.3
2017-04-29T00:14:36.071Z,20.22
2017-04-29T00:15:46.612Z,20.19
2017-04-29T00:16:56.586Z,20.36
2017-04-29T00:18:06.861Z,20.3
2017-04-29T00:19:16.848Z,20.34
2017-04-29T00:20:27.138Z,20.33
2017-04-29T00:21:37.374Z,20.33
2017-04-29T00:22:47.347Z,20.34
2017-04-29T00:23:57.007Z,20.33
2017-04-29T00:25:06.980Z,20.29
2017-04-29T00:26:16.630Z,20.29
2017-04-29T00:27:26.548Z,20.24
2017-04-29T00:28:36.209Z,20.33
2017-04-29T00:29:46.501Z,20.33
2017-04-29T00:30:56.789Z,20.39
2017-04-29T00:32:07.077Z,20.37
2017-04-29T00:33:17.616Z,20.32
2017-04-29T00:34:27.897Z,20.24
2017-04-29T00:35:38.177Z,20.17
2017-04-29T00:36:48.484Z,20.24
2017-04-29T00:37:58.490Z,20.19
2017-04-29T00:39:08.716Z,20.29
2017-04-29T00:40:18.721Z,20.24
2017-04-29T00:41:28.686Z,20.24
2017-04-29T00:42:38.657Z,20.22
2017-04-29T00:43:48.631Z,20.21
2017-04-29T00:44:59.202Z,20.27
2017-04-29T00:46:09.182Z,20.22
2017-04-29T00:47:19.471Z,20.26
2017-04-29T00:48:29.441Z,20.24
2017-04-29T00:49:39.722Z,20.14
2017-04-29T00:50:49.946Z,20.24
2017-04-29T00:52:00.244Z,20.21
2017-04-29T00:53:10.531Z,20.29
2017-04-29T00:54:20.192Z,20.22
2017-04-29T00:55:30.175Z,20.24
2017-04-29T00:56:40.400Z,20.21
2017-04-29T00:57:50.684Z,20.19
2017-04-29T00:59:00.981Z,20.26
2017-04-29T01:00:11.266Z,20.29
2017-04-29T01:01:21.553Z,20.24
2017-04-29T01:02:32.103Z,20.22
2017-04-29T01:03:42.077Z,20.18
2017-04-29T01:04:51.744Z,20.21
2017-04-29T01:06:02.027Z,20.24
2017-04-29T01:07:11.997Z,20.26
2017-04-29T01:08:22.528Z,20.22
2017-04-29T01:09:32.202Z,20.22
2017-04-29T01:10:42.186Z,20.19
2017-04-29T01:11:52.462Z,20.27
2017-04-29T01:13:02.738Z,20.3
2017-04-29T01:14:12.963Z,20.19
2017-04-29T01:15:23.355Z,20.17
2017-04-29T01:16:33.636Z,20.22
2017-04-29T01:17:43.916Z,20.21
2017-04-29T01:18:54.204Z,20.22
2017-04-29T01:20:04.377Z,20.24
2017-04-29T01:21:14.035Z,20.21
2017-04-29T01:22:24.009Z,20.24
2017-04-29T01:23:34.297Z,20.22
2017-04-29T01:24:44.576Z,20.24
2017-04-29T01:25:54.809Z,20.17
2017-04-29T01:27:05.150Z,20.19
2017-04-29T01:28:15.432Z,20.18
2017-04-29T01:29:25.424Z,20.11
2017-04-29T01:30:35.411Z,20.14
2017-04-29T01:31:45.941Z,20.19
2017-04-29T01:32:55.911Z,20.17
2017-04-29T01:34:06.211Z,20.18
2017-04-29T01:35:16.182Z,20.21
2017-04-29T01:36:26.468Z,20.15
2017-04-29T01:37:37.014Z,20.12
2017-04-29T01:38:46.977Z,20.11
2017-04-29T01:39:57.260Z,20.1
2017-04-29T01:41:07.539Z,20.11
2017-04-29T01:42:17.814Z,20.11
2017-04-29T01:43:28.032Z,20.14
2017-04-29T01:44:38.324Z,20.17
2017-04-29T01:45:48.606Z,20.19
2017-04-29T01:46:58.277Z,20.17
2017-04-29T01:48:08.556Z,20.14
2017-04-29T01:49:18.792Z,20.19
2017-04-29T01:50:29.085Z,20.15
2017-04-29T01:51:39.368Z,20.1
2017-04-29T01:52:49.658Z,20.14
2017-04-29T01:53:59.939Z,20.14
2017-04-29T01:55:10.468Z,20.14
2017-04-29T01:56:20.755Z,20.12
2017-04-29T01:57:31.048Z,20.12
2017-04-29T01:58:41.015Z,20.26
2017-04-29T01:59:51.302Z,20.12
2017-04-29T02:01:01.847Z,20.1
2017-04-29T02:02:12.131Z,20.14
2017-04-29T02:03:22.424Z,20.12
2017-04-29T02:04:32.717Z,20.14
2017-04-29T02:05:42.694Z,20.12
2017-04-29T02:06:53.225Z,20.1
2017-04-29T02:08:03.193Z,20.18
2017-04-29T02:09:13.483Z,20.15
2017-04-29T02:10:23.449Z,20.21
2017-04-29T02:11:33.734Z,20.12
2017-04-29T02:12:44.299Z,20.17
2017-04-29T02:13:54.601Z,20.08
2017-04-29T02:15:04.897Z,20.12
2017-04-29T02:16:15.185Z,20.11
2017-04-29T02:17:25.177Z,20.12
2017-04-29T02:18:35.729Z,20.11
2017-04-29T02:19:46.021Z,20.12
2017-04-29T02:20:56.307Z,20.08
2017-04-29T02:22:06.275Z,20.12
2017-04-29T02:23:16.563Z,20.11
2017-04-29T02:24:26.486Z,20.11
2017-04-29T02:25:36.765Z,20.14
2017-04-29T02:26:47.047Z,20.14
2017-04-29T02:27:57.328Z,20.12
2017-04-29T02:29:07.613Z,20.08
2017-04-29T02:30:17.836Z,20.11
2017-04-29T02:31:28.122Z,20.08
2017-04-29T02:32:38.411Z,20.07
2017-04-29T02:33:48.387Z,20.08
2017-04-29T02:34:58.359Z,20.11
2017-04-29T02:36:08.910Z,20.1
2017-04-29T02:37:19.197Z,20
2017-04-29T02:38:29.176Z,20.15
2017-04-29T02:39:39.465Z,20.12
2017-04-29T02:40:49.119Z,20.04
2017-04-29T02:41:59.650Z,20.1
2017-04-29T02:43:09.925Z,19.99
2017-04-29T02:44:19.592Z,20.03
2017-04-29T02:45:29.877Z,20.12
2017-04-29T02:46:39.849Z,20.1
2017-04-29T02:47:50.397Z,20.11
2017-04-29T02:49:00.379Z,20.1
2017-04-29T02:50:10.671Z,20.04
2017-04-29T02:51:20.951Z,20.08
2017-04-29T02:52:31.230Z,20.12
2017-04-29T02:53:41.765Z,20.08
2017-04-29T02:54:52.048Z,20.08
2017-04-29T02:56:01.705Z,20.14
2017-04-29T02:57:11.991Z,20.04
2017-04-29T02:58:22.282Z,20.07
2017-04-29T02:59:32.814Z,20.08
2017-04-29T03:00:42.785Z,20
2017-04-29T03:01:52.445Z,20.08
2017-04-29T03:03:02.726Z,20.02
2017-04-29T03:04:12.715Z,20.07
2017-04-29T03:05:23.250Z,19.96
2017-04-29T03:06:33.226Z,20
2017-04-29T03:07:43.524Z,20
2017-04-29T03:08:53.808Z,20.1
2017-04-29T03:10:04.105Z,20.02
2017-04-29T03:11:14.630Z,20
2017-04-29T03:12:24.924Z,20.1
2017-04-29T03:13:35.213Z,20.08
2017-04-29T03:14:45.510Z,20.02
2017-04-29T03:15:55.172Z,19.99
2017-04-29T03:17:05.708Z,20
2017-04-29T03:18:15.990Z,20.02
2017-04-29T03:19:26.267Z,20.02
2017-04-29T03:20:36.247Z,19.97
2017-04-29T03:21:46.529Z,19.96
2017-04-29T03:22:56.742Z,19.97
2017-04-29T03:24:07.023Z,20
2017-04-29T03:25:16.987Z,19.94
2017-04-29T03:26:26.662Z,20
2017-04-29T03:27:36.954Z,19.97
2017-04-29T03:28:47.487Z,19.97
2017-04-29T03:29:57.784Z,20
2017-04-29T03:31:08.060Z,19.92
2017-04-29T03:32:18.093Z,19.96
2017-04-29T03:33:28.373Z,20.07
2017-04-29T03:34:38.911Z,19.97
2017-04-29T03:35:48.889Z,19.99
2017-04-29T03:36:59.175Z,19.99
2017-04-29T03:38:09.472Z,20
2017-04-29T03:39:19.762Z,20
2017-04-29T03:40:30.317Z,19.94
2017-04-29T03:41:40.630Z,19.96
2017-04-29T03:42:50.911Z,20.02
2017-04-29T03:44:00.925Z,19.97
2017-04-29T03:45:11.215Z,19.93
2017-04-29T03:46:21.746Z,20.03
2017-04-29T03:47:32.031Z,20
2017-04-29T03:48:42.312Z,20.02
2017-04-29T03:49:52.601Z,19.99
2017-04-29T03:51:02.878Z,19.97
2017-04-29T03:52:13.104Z,20.03
2017-04-29T03:53:23.073Z,19.9
2017-04-29T03:54:33.058Z,20
2017-04-29T03:55:43.336Z,19.96
2017-04-29T03:56:53.615Z,19.94
2017-04-29T03:58:04.160Z,19.97
2017-04-29T03:59:13.822Z,19.97
2017-04-29T04:00:24.118Z,19.97
2017-04-29T04:01:34.397Z,19.96
2017-04-29T04:02:44.374Z,19.93
2017-04-29T04:03:54.604Z,20
2017-04-29T04:05:04.610Z,20
2017-04-29T04:06:14.887Z,19.97
2017-04-29T04:07:24.862Z,19.97
2017-04-29T04:08:35.148Z,20
2017-04-29T04:09:45.755Z,20.02
2017-04-29T04:10:56.050Z,19.93
2017-04-29T04:12:06.333Z,19.99
2017-04-29T04:13:16.626Z,20.02
2017-04-29T04:14:26.910Z,19.99
2017-04-29T04:15:37.440Z,19.99
2017-04-29T04:16:47.718Z,20.02
2017-04-29T04:17:57.724Z,19.94
2017-04-29T04:19:08.017Z,20
2017-04-29T04:20:18.300Z,20.07
2017-04-29T04:21:28.533Z,20.03
2017-04-29T04:22:38.809Z,19.99
2017-04-29T04:23:49.093Z,20
2017-04-29T04:24:59.372Z,20.04
2017-04-29T04:26:09.660Z,20
2017-04-29T04:27:20.181Z,19.96
2017-04-29T04:28:30.456Z,20.02
2017-04-29T04:29:40.748Z,19.99
2017-04-29T04:30:50.725Z,20.03
2017-04-29T04:32:00.701Z,19.97
2017-04-29T04:33:10.919Z,19.99
2017-04-29T04:34:21.205Z,19.97
2017-04-29T04:35:31.482Z,20.04
2017-04-29T04:36:41.781Z,19.97
2017-04-29T04:37:52.109Z,20
2017-04-29T04:39:02.647Z,19.97
2017-04-29T04:40:12.963Z,19.92
2017-04-29T04:41:23.309Z,19.99
2017-04-29T04:42:33.287Z,20.02
2017-04-29T04:43:43.252Z,20.02
2017-04-29T04:44:53.797Z,20.1
2017-04-29T04:46:03.470Z,20.02
2017-04-29T04:47:13.436Z,20
2017-04-29T04:48:23.727Z,20.02
2017-04-29T04:49:33.708Z,20.04
2017-04-29T04:50:44.242Z,20.02
2017-04-29T04:51:54.207Z,20
2017-04-29T04:53:04.492Z,20.04
2017-04-29T04:54:14.159Z,20.11
2017-04-29T04:55:24.484Z,20.11
2017-04-29T04:56:34.713Z,20.11
2017-04-29T04:57:45.002Z,20.12
2017-04-29T04:58:55.290Z,20.11
2017-04-29T05:00:05.573Z,20.07
2017-04-29T05:01:15.230Z,20.14
2017-04-29T05:02:25.764Z,20.11
2017-04-29T05:03:36.047Z,20.02
2017-04-29T05:04:46.021Z,20.04
2017-04-29T05:05:56.015Z,20.11
2017-04-29T05:07:06.307Z,20.07
2017-04-29T05:08:16.839Z,20.08
2017-04-29T05:09:27.136Z,20.08
2017-04-29T05:10:37.413Z,20.1
2017-04-29T05:11:47.395Z,20.08
2017-04-29T05:12:57.367Z,20.11
2017-04-29T05:14:07.897Z,20.1
2017-04-29T05:15:18.193Z,20.17
2017-04-29T05:16:28.168Z,20.15
2017-04-29T05:17:38.463Z,20.1
2017-04-29T05:18:48.752Z,20.12
2017-04-29T05:19:58.358Z,20.1
2017-04-29T05:21:08.337Z,20.14
2017-04-29T05:22:18.624Z,20.14
2017-04-29T05:23:28.946Z,20.1
2017-04-29T05:24:39.239Z,20.14
2017-04-29T05:25:49.782Z,20.11
2017-04-29T05:26:59.760Z,20.12
2017-04-29T05:28:10.041Z,20.12
2017-04-29T05:29:20.345Z,20.12
2017-04-29T05:30:30.644Z,20.08
2017-04-29T05:31:41.195Z,20.1
2017-04-29T05:32:51.477Z,20.11
2017-04-29T05:34:01.767Z,20.11
2017-04-29T05:35:12.055Z,20.11
2017-04-29T05:36:22.350Z,20.12
2017-04-29T05:37:32.894Z,20.11
2017-04-29T05:38:43.171Z,20.08
2017-04-29T05:39:53.145Z,20.07
2017-04-29T05:41:03.425Z,20.08
2017-04-29T05:42:13.399Z,20.19
2017-04-29T05:43:23.320Z,20.08
2017-04-29T05:44:32.682Z,20.17
2017-04-29T05:45:42.972Z,20.17
2017-04-29T05:46:53.258Z,20.18
2017-04-29T05:48:03.226Z,20.22
2017-04-29T05:49:13.453Z,20.22
2017-04-29T05:50:23.760Z,20.21
2017-04-29T05:51:34.040Z,20.26
2017-04-29T05:52:44.012Z,20.21
2017-04-29T05:53:53.991Z,20.24
2017-04-29T05:55:04.217Z,20.19
2017-04-29T05:56:14.500Z,20.22
2017-04-29T05:57:24.717Z,20.29
2017-04-29T05:58:35.049Z,20.27
2017-04-29T05:59:45.022Z,20.22
2017-04-29T06:00:55.560Z,20.22
2017-04-29T06:02:05.542Z,20.27
2017-04-29T06:03:15.207Z,20.24
2017-04-29T06:04:25.494Z,20.26
2017-04-29T06:05:34.849Z,20.17
2017-04-29T06:06:45.088Z,20.21
2017-04-29T06:07:55.374Z,20.19
2017-04-29T06:09:05.683Z,20.29
2017-04-29T06:10:15.983Z,20.24
2017-04-29T06:11:25.951Z,20.22
2017-04-29T06:12:36.486Z,20.26
2017-04-29T06:13:46.781Z,20.3
2017-04-29T06:14:57.101Z,20.21
2017-04-29T06:16:06.761Z,20.22
2017-04-29T06:17:17.039Z,20.17
2017-04-29T06:18:27.591Z,20.3
2017-04-29T06:19:37.263Z,20.21
2017-04-29T06:20:47.556Z,20.22
2017-04-29T06:21:57.838Z,20.26
2017-04-29T06:23:07.515Z,20.22
2017-04-29T06:24:18.041Z,20.21
2017-04-29T06:25:28.329Z,20.26
2017-04-29T06:26:38.617Z,20.24
2017-04-29T06:27:48.909Z,20.19
2017-04-29T06:28:59.211Z,20.21
2017-04-29T06:30:09.736Z,20.19
2017-04-29T06:31:20.011Z,20.21
2017-04-29T06:32:30.299Z,20.22
2017-04-29T06:33:40.287Z,20.24
2017-04-29T06:34:50.571Z,20.27
2017-04-29T06:36:01.131Z,20.21
2017-04-29T06:37:10.807Z,20.29
2017-04-29T06:38:21.096Z,20.24
2017-04-29T06:39:31.382Z,20.26
2017-04-29T06:40:41.685Z,20.24
2017-04-29T06:41:51.916Z,20.27
2017-04-29T06:43:02.194Z,20.27
2017-04-29T06:44:12.496Z,20.24
2017-04-29T06:45:22.466Z,20.27
2017-04-29T06:46:32.775Z,20.22
2017-04-29T06:47:43.314Z,20.24
2017-04-29T06:48:53.606Z,20.24
2017-04-29T06:50:03.277Z,20.27
2017-04-29T06:51:12.943Z,20.21
2017-04-29T06:52:23.234Z,20.26
2017-04-29T06:53:33.763Z,20.29
2017-04-29T06:54:44.052Z,20.21
2017-04-29T06:55:54.041Z,20.22
2017-04-29T06:57:04.326Z,20.24
2017-04-29T06:58:14.615Z,20.19
2017-04-29T06:59:25.145Z,20.24
2017-04-29T07:00:35.137Z,20.27
2017-04-29T07:01:45.431Z,20.21
2017-04-29T07:02:55.727Z,20.22
2017-04-29T07:04:05.711Z,20.19
2017-04-29T07:05:16.250Z,20.27
2017-04-29T07:06:26.531Z,20.21
2017-04-29T07:07:36.509Z,20.26
2017-04-29T07:08:46.491Z,20.22
2017-04-29T07:09:56.463Z,20.22
2017-04-29T07:11:06.997Z,20.3
2017-04-29T07:12:17.297Z,20.26
2017-04-29T07:13:27.283Z,20.32
2017-04-29T07:14:37.259Z,20.33
2017-04-29T07:15:47.540Z,20.24
2017-04-29T07:16:58.083Z,20.33
2017-04-29T07:18:08.068Z,20.3
2017-04-29T07:19:18.050Z,20.29
2017-04-29T07:20:28.030Z,20.33
2017-04-29T07:21:38.309Z,20.32
2017-04-29T07:22:48.529Z,20.32
2017-04-29T07:23:58.516Z,20.32
2017-04-29T07:25:08.494Z,20.32
2017-04-29T07:26:18.783Z,20.3
2017-04-29T07:27:29.079Z,20.27
2017-04-29T07:28:39.608Z,20.29
2017-04-29T07:29:49.582Z,20.32
2017-04-29T07:30:59.868Z,20.32
2017-04-29T07:32:10.150Z,20.3
2017-04-29T07:33:20.143Z,20.32
2017-04-29T07:34:30.689Z,20.3
2017-04-29T07:35:40.986Z,20.29
2017-04-29T07:36:51.313Z,20.29
2017-04-29T07:38:01.605Z,20.32
2017-04-29T07:39:11.585Z,20.4
2017-04-29T07:40:21.811Z,20.29
2017-04-29T07:41:32.103Z,20.39
2017-04-29T07:42:42.402Z,20.36
2017-04-29T07:43:52.384Z,20.42
2017-04-29T07:45:02.697Z,20.44
2017-04-29T07:46:13.243Z,20.44
2017-04-29T07:47:23.533Z,20.42
2017-04-29T07:48:33.818Z,20.42
2017-04-29T07:49:44.109Z,20.44
2017-04-29T07:50:54.395Z,20.37
2017-04-29T07:52:04.636Z,20.4
2017-04-29T07:53:14.627Z,20.48
2017-04-29T07:54:24.921Z,20.46
2017-04-29T07:55:35.217Z,20.5
2017-04-29T07:56:45.190Z,20.48
2017-04-29T07:57:55.792Z,20.39
2017-04-29T07:59:06.115Z,20.4
2017-04-29T08:00:16.400Z,20.39
2017-04-29T08:01:26.695Z,20.55
2017-04-29T08:02:36.984Z,20.46
2017-04-29T08:03:47.223Z,20.53
2017-04-29T08:04:57.206Z,20.56
2017-04-29T08:06:07.496Z,20.5
2017-04-29T08:07:17.806Z,20.49
2017-04-29T08:08:27.786Z,20.52
2017-04-29T08:09:38.324Z,20.52
2017-04-29T08:10:48.303Z,20.46
2017-04-29T08:11:58.602Z,20.49
2017-04-29T08:13:08.881Z,20.52
2017-04-29T08:14:19.172Z,20.53
2017-04-29T08:15:29.394Z,20.5
2017-04-29T08:16:39.710Z,20.53
2017-04-29T08:17:49.991Z,20.44
2017-04-29T08:19:00.283Z,20.49
2017-04-29T08:20:10.571Z,20.53
2017-04-29T08:21:21.124Z,20.46
2017-04-29T08:22:31.106Z,20.5
2017-04-29T08:23:41.406Z,20.56
2017-04-29T08:24:51.387Z,20.5
2017-04-29T08:26:01.692Z,20.4
2017-04-29T08:27:12.250Z,20.53
2017-04-29T08:28:22.551Z,20.42
2017-04-29T08:29:32.847Z,20.55
2017-04-29T08:30:42.818Z,20.52
2017-04-29T08:31:53.111Z,20.56
2017-04-29T08:33:03.655Z,20.52
2017-04-29T08:34:13.948Z,20.4
2017-04-29T08:35:24.283Z,20.55
2017-04-29T08:36:34.575Z,20.42
2017-04-29T08:37:44.552Z,20.46
2017-04-29T08:38:55.094Z,20.42
2017-04-29T08:40:05.115Z,20.46
2017-04-29T08:41:15.407Z,20.48
2017-04-29T08:42:25.699Z,20.42
2017-04-29T08:43:36.007Z,20.42
2017-04-29T08:44:46.311Z,20.49
2017-04-29T08:45:55.987Z,20.56
2017-04-29T08:47:06.283Z,20.4
2017-04-29T08:48:16.580Z,20.48
2017-04-29T08:49:25.629Z,20.48
2017-04-29T08:50:36.165Z,20.49
2017-04-29T08:51:46.478Z,20.48
2017-04-29T08:52:56.462Z,20.52
2017-04-29T08:54:06.768Z,20.39
2017-04-29T08:55:16.466Z,20.48
2017-04-29T08:56:27.012Z,20.44
2017-04-29T08:57:37.006Z,20.48
2017-04-29T08:58:46.981Z,20.49
2017-04-29T08:59:56.344Z,20.44
2017-04-29T09:01:06.641Z,20.42
2017-04-29T09:02:16.866Z,20.42
2017-04-29T09:03:27.147Z,20.48
2017-04-29T09:04:37.429Z,20.42
2017-04-29T09:05:47.721Z,20.37
2017-04-29T09:06:57.709Z,20.48
2017-04-29T09:08:07.956Z,20.46
2017-04-29T09:09:18.243Z,20.32
2017-04-29T09:10:28.234Z,20.3
2017-04-29T09:11:38.516Z,20.3
2017-04-29T09:12:48.512Z,20.33
2017-04-29T09:13:58.759Z,20.34
2017-04-29T09:15:09.073Z,20.29
2017-04-29T09:16:19.362Z,20.3
2017-04-29T09:17:29.653Z,20.29
2017-04-29T09:18:39.655Z,20.4
2017-04-29T09:19:50.201Z,20.3
2017-04-29T09:21:00.174Z,20.32
2017-04-29T09:22:10.461Z,20.36
2017-04-29T09:23:20.754Z,20.3
2017-04-29T09:24:31.069Z,20.32
2017-04-29T09:25:41.608Z,20.29
2017-04-29T09:26:51.900Z,20.32
2017-04-29T09:28:02.196Z,20.27
2017-04-29T09:29:12.181Z,20.32
2017-04-29T09:30:22.172Z,20.27
2017-04-29T09:31:32.414Z,20.29
2017-04-29T09:32:42.726Z,20.32
2017-04-29T09:33:53.018Z,20.29
2017-04-29T09:35:03.307Z,20.33
2017-04-29T09:36:13.294Z,20.29
2017-04-29T09:37:23.857Z,20.33
2017-04-29T09:38:33.207Z,20.27
2017-04-29T09:39:43.503Z,20.37
2017-04-29T09:40:53.789Z,20.33
2017-04-29T09:42:04.081Z,20.32
2017-04-29T09:43:14.627Z,20.33
2017-04-29T09:44:24.930Z,20.34
2017-04-29T09:45:35.229Z,20.32
2017-04-29T09:46:45.516Z,20.33
2017-04-29T09:47:55.485Z,20.27
2017-04-29T09:49:06.024Z,20.32
2017-04-29T09:50:16.318Z,20.34
2017-04-29T09:51:26.601Z,20.4
2017-04-29T09:52:36.907Z,20.29
2017-04-29T09:53:46.888Z,20.29
2017-04-29T09:54:57.432Z,20.33
2017-04-29T09:56:07.717Z,20.36
2017-04-29T09:57:17.727Z,20.32
2017-04-29T09:58:27.714Z,20.29
2017-04-29T09:59:38.009Z,20.33
2017-04-29T10:00:48.227Z,20.34
2017-04-29T10:01:58.537Z,20.33
2017-04-29T10:03:08.529Z,20.34
2017-04-29T10:04:18.821Z,20.32
2017-04-29T10:05:29.115Z,20.29
2017-04-29T10:06:39.652Z,20.32
2017-04-29T10:07:49.960Z,20.29
2017-04-29T10:09:00.264Z,20.29
2017-04-29T10:10:10.562Z,20.33
2017-04-29T10:11:20.867Z,20.26
2017-04-29T10:12:31.415Z,20.29
2017-04-29T10:13:41.745Z,20.29
2017-04-29T10:14:51.753Z,20.3
2017-04-29T10:16:02.068Z,20.3
2017-04-29T10:17:12.378Z,20.29
2017-04-29T10:18:22.610Z,20.3
2017-04-29T10:19:32.292Z,20.3
2017-04-29T10:20:42.577Z,20.29
2017-04-29T10:21:52.856Z,20.36
2017-04-29T10:23:02.826Z,20.32
2017-04-29T10:24:13.066Z,20.32
2017-04-29T10:25:23.070Z,20.27
2017-04-29T10:26:33.052Z,20.32
2017-04-29T10:27:43.343Z,20.27
2017-04-29T10:28:53.635Z,20.33
2017-04-29T10:30:03.564Z,20.33
2017-04-29T10:31:13.873Z,20.46
2017-04-29T10:32:24.165Z,20.32
2017-04-29T10:33:34.160Z,20.3
2017-04-29T10:34:44.458Z,20.32
2017-04-29T10:35:54.987Z,20.29
2017-04-29T10:37:04.342Z,20.39
2017-04-29T10:38:14.620Z,20.29
2017-04-29T10:39:24.598Z,20.39
2017-04-29T10:40:34.603Z,20.44
2017-04-29T10:41:44.525Z,20.42
2017-04-29T10:42:54.803Z,20.49
2017-04-29T10:44:04.789Z,20.44
2017-04-29T10:45:14.511Z,20.56
2017-04-29T10:46:24.814Z,20.46
2017-04-29T10:47:35.353Z,20.52
2017-04-29T10:48:45.649Z,20.48
2017-04-29T10:49:55.944Z,20.46
2017-04-29T10:51:06.243Z,20.39
2017-04-29T10:52:16.221Z,20.37
2017-04-29T10:53:26.766Z,20.44
2017-04-29T10:54:37.050Z,20.44
2017-04-29T10:55:47.389Z,20.44
2017-04-29T10:56:57.684Z,20.56
2017-04-29T10:58:07.970Z,20.53
2017-04-29T10:59:17.589Z,20.44
2017-04-29T11:00:27.637Z,20.4
2017-04-29T11:01:37.956Z,20.42
2017-04-29T11:02:47.937Z,20.49
2017-04-29T11:03:58.235Z,20.48
2017-04-29T11:05:08.472Z,20.44
2017-04-29T11:06:18.762Z,20.5
2017-04-29T11:07:29.064Z,20.42
2017-04-29T11:08:39.037Z,20.44
2017-04-29T11:09:49.341Z,20.5
2017-04-29T11:10:59.868Z,20.58
2017-04-29T11:12:09.233Z,20.46
2017-04-29T11:13:19.549Z,20.39
2017-04-29T11:14:29.899Z,20.53
2017-04-29T11:15:39.866Z,20.48
2017-04-29T11:16:50.112Z,20.53
2017-04-29T11:18:00.399Z,20.4
2017-04-29T11:19:10.387Z,20.46
2017-04-29T11:20:20.423Z,20.48
2017-04-29T11:21:30.415Z,20.52
2017-04-29T11:22:40.961Z,20.55
2017-04-29T11:23:50.950Z,20.53
2017-04-29T11:25:01.251Z,20.55
2017-04-29T11:26:11.248Z,20.5
2017-04-29T11:27:21.578Z,20.56
2017-04-29T11:28:32.174Z,20.56
2017-04-29T11:29:42.151Z,20.53
2017-04-29T11:30:52.135Z,20.5
2017-04-29T11:32:02.434Z,20.52
2017-04-29T11:33:12.732Z,20.46
2017-04-29T11:34:23.280Z,20.49
2017-04-29T11:35:33.583Z,20.5
2017-04-29T11:36:43.863Z,20.53
2017-04-29T11:37:54.163Z,20.48
2017-04-29T11:39:04.158Z,20.49
2017-04-29T11:40:14.085Z,20.49
2017-04-29T11:41:24.383Z,20.46
2017-04-29T11:42:34.674Z,20.48
2017-04-29T11:43:44.663Z,20.49
2017-04-29T11:44:54.330Z,20.44
2017-04-29T11:46:04.564Z,20.49
2017-04-29T11:47:14.862Z,20.52
2017-04-29T11:48:25.169Z,20.49
2017-04-29T11:49:35.464Z,20.5
2017-04-29T11:50:45.764Z,20.5
2017-04-29T11:51:56.008Z,20.56
2017-04-29T11:53:06.324Z,20.59
2017-04-29T11:54:16.302Z,20.5
2017-04-29T11:55:26.600Z,20.5
2017-04-29T11:56:36.898Z,20.46
2017-04-29T11:57:47.452Z,20.58
2017-04-29T11:58:57.765Z,20.49
2017-04-29T12:00:08.057Z,20.53
2017-04-29T12:01:18.332Z,20.5
2017-04-29T12:02:28.296Z,20.48
2017-04-29T12:03:38.527Z,20.52
2017-04-29T12:04:48.200Z,20.46
2017-04-29T12:05:58.518Z,20.52
2017-04-29T12:07:08.513Z,20.55
2017-04-29T12:08:18.815Z,20.46
2017-04-29T12:09:29.433Z,20.58
2017-04-29T12:10:39.427Z,20.55
2017-04-29T12:11:49.734Z,20.52
2017-04-29T12:13:00.032Z,20.42
2017-04-29T12:14:10.326Z,20.39
2017-04-29T12:15:20.871Z,20.44
2017-04-29T12:16:31.168Z,20.49
2017-04-29T12:17:41.148Z,20.53
2017-04-29T12:18:51.142Z,20.48
2017-04-29T12:20:01.434Z,20.4
2017-04-29T12:21:11.365Z,20.53
2017-04-29T12:22:21.655Z,20.44
2017-04-29T12:23:31.641Z,20.5
2017-04-29T12:24:41.954Z,20.48
2017-04-29T12:25:52.254Z,20.53
2017-04-29T12:27:02.802Z,20.56
2017-04-29T12:28:13.085Z,20.48
2017-04-29T12:29:22.778Z,20.5
2017-04-29T12:30:33.124Z,20.46
2017-04-29T12:31:43.433Z,20.56
2017-04-29T12:32:54.010Z,20.44
2017-04-29T12:34:04.332Z,20.44
2017-04-29T12:35:14.639Z,20.39
2017-04-29T12:36:24.628Z,20.4
2017-04-29T12:37:34.927Z,20.48
2017-04-29T12:38:45.174Z,20.4
2017-04-29T12:39:55.167Z,20.42
2017-04-29T12:41:05.167Z,20.4
2017-04-29T12:42:15.459Z,20.44
2017-04-29T12:43:25.451Z,20.42
2017-04-29T12:44:35.678Z,20.49
2017-04-29T12:45:46.009Z,20.44
2017-04-29T12:46:55.985Z,20.42
2017-04-29T12:48:05.965Z,20.48
2017-04-29T12:49:16.272Z,20.37
2017-04-29T12:50:26.929Z,20.44
2017-04-29T12:51:37.235Z,20.42
2017-04-29T12:52:47.529Z,20.48
2017-04-29T12:53:57.833Z,20.48
2017-04-29T12:55:08.128Z,20.44
2017-04-29T12:56:18.377Z,20.39
2017-04-29T12:57:28.356Z,20.39
2017-04-29T12:58:38.664Z,20.46
2017-04-29T12:59:48.641Z,20.36
2017-04-29T13:00:58.932Z,20.29
2017-04-29T13:02:09.488Z,20.42
2017-04-29T13:03:19.775Z,20.48
2017-04-29T13:04:29.778Z,20.32
2017-04-29T13:05:39.756Z,20.49
2017-04-29T13:06:49.756Z,20.3
2017-04-29T13:08:00.318Z,20.26
2017-04-29T13:09:10.616Z,20.29
2017-04-29T13:10:20.605Z,20.37
2017-04-29T13:11:30.894Z,20.29
2017-04-29T13:12:40.883Z,20.37
2017-04-29T13:13:51.487Z,20.33
2017-04-29T13:15:01.787Z,20.34
2017-04-29T13:16:12.070Z,20.32
2017-04-29T13:17:22.375Z,20.22
2017-04-29T13:18:32.677Z,20.34
2017-04-29T13:19:43.214Z,20.32
2017-04-29T13:20:53.209Z,20.33
2017-04-29T13:22:03.530Z,20.36
2017-04-29T13:23:13.502Z,20.33
2017-04-29T13:24:23.803Z,20.33
2017-04-29T13:25:34.349Z,20.3
2017-04-29T13:26:44.400Z,20.33
2017-04-29T13:27:54.707Z,20.33
2017-04-29T13:29:04.684Z,20.32
2017-04-29T13:30:14.979Z,20.32
2017-04-29T13:31:25.527Z,20.32
2017-04-29T13:32:35.818Z,20.37
2017-04-29T13:33:46.108Z,20.34
2017-04-29T13:34:56.094Z,20.27
2017-04-29T13:36:05.767Z,20.26
2017-04-29T13:37:16.041Z,20.32
2017-04-29T13:38:26.030Z,20.34
2017-04-29T13:39:36.341Z,20.34
2017-04-29T13:40:46.347Z,20.32
2017-04-29T13:41:56.658Z,20.32
2017-04-29T13:43:07.232Z,20.32
2017-04-29T13:44:17.529Z,20.29
2017-04-29T13:45:27.536Z,20.36
2017-04-29T13:46:37.536Z,20.36
2017-04-29T13:47:47.525Z,20.33
2017-04-29T13:48:57.808Z,20.27
2017-04-29T13:50:08.125Z,20.37
2017-04-29T13:51:18.116Z,20.32
2017-04-29T13:52:28.416Z,20.27
2017-04-29T13:53:38.385Z,20.39
2017-04-29T13:54:48.996Z,20.37
2017-04-29T13:55:59.298Z,20.36
2017-04-29T13:57:09.588Z,20.44
2017-04-29T13:58:19.879Z,20.37
2017-04-29T13:59:29.870Z,20.32
2017-04-29T14:00:40.117Z,20.44
2017-04-29T14:01:50.417Z,20.46
2017-04-29T14:03:00.708Z,20.33
2017-04-29T14:04:10.706Z,20.44
2017-04-29T14:05:20.693Z,20.42
2017-04-29T14:06:30.928Z,20.37
2017-04-29T14:07:40.606Z,20.44
2017-04-29T14:08:50.893Z,20.39
2017-04-29T14:10:01.190Z,20.46
2017-04-29T14:11:11.482Z,20.46
2017-04-29T14:12:22.038Z,20.39
2017-04-29T14:13:32.025Z,20.4
2017-04-29T14:14:42.038Z,20.4
2017-04-29T14:15:52.343Z,20.44
2017-04-29T14:17:02.328Z,20.37
2017-04-29T14:18:12.563Z,20.48
2017-04-29T14:19:22.878Z,20.37
2017-04-29T14:20:33.185Z,20.44
2017-04-29T14:21:43.500Z,20.39
2017-04-29T14:22:53.799Z,20.42
2017-04-29T14:24:04.039Z,20.44
2017-04-29T14:25:14.347Z,20.46
2017-04-29T14:26:24.329Z,20.46
2017-04-29T14:27:34.002Z,20.44
2017-04-29T14:28:43.995Z,20.39
2017-04-29T14:29:54.271Z,20.44
2017-04-29T14:31:03.948Z,20.42
2017-04-29T14:32:13.934Z,20.37
2017-04-29T14:33:23.930Z,20.46
2017-04-29T14:34:33.611Z,20.37
2017-04-29T14:35:43.851Z,20.42
2017-04-29T14:36:54.137Z,20.39
2017-04-29T14:38:03.805Z,20.44
2017-04-29T14:39:13.845Z,20.3
2017-04-29T14:40:24.135Z,20.48
2017-04-29T14:41:34.687Z,20.3
2017-04-29T14:42:44.673Z,20.27
2017-04-29T14:43:54.965Z,20.29
2017-04-29T14:45:04.938Z,20.42
2017-04-29T14:46:14.953Z,20.44
2017-04-29T14:47:25.228Z,20.44
2017-04-29T14:48:35.560Z,20.4
2017-04-29T14:49:45.873Z,20.3
2017-04-29T14:50:56.186Z,20.34
2017-04-29T14:52:06.493Z,20.3
2017-04-29T14:53:17.067Z,20.27
2017-04-29T14:54:26.742Z,20.27
2017-04-29T14:55:37.077Z,20.3
2017-04-29T14:56:47.399Z,20.36
2017-04-29T14:57:57.393Z,20.27
2017-04-29T14:59:07.686Z,20.3
2017-04-29T15:00:17.987Z,20.34
2017-04-29T15:01:28.327Z,20.32
2017-04-29T15:02:38.624Z,20.34
2017-04-29T15:03:48.949Z,20.3
2017-04-29T15:04:59.527Z,20.32
2017-04-29T15:06:09.523Z,20.26
2017-04-29T15:07:19.825Z,20.26
2017-04-29T15:08:30.152Z,20.18
2017-04-29T15:09:40.153Z,20.3